sensor_id;sensor_type;location;lat;lon;timestamp;pressure;altitude;pressure_sealevel;temperature;humidity
11523;BME280;40093;43.224;27.910;2023-03-07T00:01:36;99935.91;;;9.05;87.35
11523;BME280;40093;43.224;27.910;2023-03-07T00:04:03;99931.56;;;9.01;87.96
11523;BME280;40093;43.224;27.910;2023-03-07T00:06:30;99926.88;;;9.05;88.02
11523;BME280;40093;43.224;27.910;2023-03-07T00:08:59;99924.91;;;9.02;88.14
11523;BME280;40093;43.224;27.910;2023-03-07T00:11:27;99932.69;;;8.96;88.45
11523;BME280;40093;43.224;27.910;2023-03-07T00:13:55;99929.94;;;8.96;88.43
11523;BME280;40093;43.224;27.910;2023-03-07T00:16:23;99914.63;;;8.92;89.29
11523;BME280;40093;43.224;27.910;2023-03-07T00:18:50;99916.19;;;8.93;90.05
11523;BME280;40093;43.224;27.910;2023-03-07T00:21:18;99913.44;;;8.93;90.41
11523;BME280;40093;43.224;27.910;2023-03-07T00:23:46;99916.13;;;8.86;91.12
11523;BME280;40093;43.224;27.910;2023-03-07T00:26:15;99909.81;;;8.82;91.81
11523;BME280;40093;43.224;27.910;2023-03-07T00:28:45;99899.53;;;8.72;92.79
11523;BME280;40093;43.224;27.910;2023-03-07T00:31:12;99900.94;;;8.55;93.74
11523;BME280;40093;43.224;27.910;2023-03-07T00:33:39;99894.13;;;8.39;95.85
11523;BME280;40093;43.224;27.910;2023-03-07T00:36:10;99893.31;;;8.38;96.85
11523;BME280;40093;43.224;27.910;2023-03-07T00:38:37;99892.59;;;8.45;96.55
11523;BME280;40093;43.224;27.910;2023-03-07T00:41:06;99883.97;;;8.43;96.79
11523;BME280;40093;43.224;27.910;2023-03-07T00:43:34;99887.94;;;8.49;97.24
11523;BME280;40093;43.224;27.910;2023-03-07T00:46:04;99888.41;;;8.54;97.50
11523;BME280;40093;43.224;27.910;2023-03-07T00:48:32;99884.53;;;8.59;97.76
11523;BME280;40093;43.224;27.910;2023-03-07T00:50:59;99885.41;;;8.70;97.86
11523;BME280;40093;43.224;27.910;2023-03-07T00:53:26;99879.53;;;8.71;97.45
11523;BME280;40093;43.224;27.910;2023-03-07T00:55:55;99870.53;;;8.71;96.89
11523;BME280;40093;43.224;27.910;2023-03-07T00:58:23;99870.53;;;8.71;96.78
11523;BME280;40093;43.224;27.910;2023-03-07T01:00:50;99871.09;;;8.47;98.66
11523;BME280;40093;43.224;27.910;2023-03-07T01:03:19;99860.53;;;8.49;99.41
11523;BME280;40093;43.224;27.910;2023-03-07T01:05:46;99860.81;;;8.37;100.00
11523;BME280;40093;43.224;27.910;2023-03-07T01:08:13;99860.09;;;8.43;100.00
11523;BME280;40093;43.224;27.910;2023-03-07T01:10:41;99860.13;;;8.47;100.00
11523;BME280;40093;43.224;27.910;2023-03-07T01:13:08;99850.72;;;8.48;100.00
11523;BME280;40093;43.224;27.910;2023-03-07T01:15:36;99851.94;;;8.54;100.00
11523;BME280;40093;43.224;27.910;2023-03-07T01:18:03;99860.03;;;8.40;100.00
11523;BME280;40093;43.224;27.910;2023-03-07T01:20:32;99846.66;;;8.31;100.00
11523;BME280;40093;43.224;27.910;2023-03-07T01:23:00;99847.09;;;8.40;100.00
11523;BME280;40093;43.224;27.910;2023-03-07T01:25:27;99841.72;;;8.47;100.00
11523;BME280;40093;43.224;27.910;2023-03-07T01:27:54;99844.81;;;8.46;100.00
11523;BME280;40093;43.224;27.910;2023-03-07T01:30:22;99837.78;;;8.48;100.00
11523;BME280;40093;43.224;27.910;2023-03-07T01:32:53;99846.09;;;8.55;100.00
11523;BME280;40093;43.224;27.910;2023-03-07T01:35:20;99835.94;;;8.59;100.00
11523;BME280;40093;43.224;27.910;2023-03-07T01:37:49;99839.13;;;8.65;100.00
11523;BME280;40093;43.224;27.910;2023-03-07T01:40:16;99841.94;;;8.72;100.00
11523;BME280;40093;43.224;27.910;2023-03-07T01:42:43;99838.81;;;8.77;100.00
11523;BME280;40093;43.224;27.910;2023-03-07T01:48:11;99826.81;;;8.92;100.00
11523;BME280;40093;43.224;27.910;2023-03-07T01:50:38;99823.38;;;9.02;100.00
11523;BME280;40093;43.224;27.910;2023-03-07T01:53:07;99825.34;;;9.05;100.00
11523;BME280;40093;43.224;27.910;2023-03-07T01:55:35;99826.13;;;9.09;100.00
11523;BME280;40093;43.224;27.910;2023-03-07T01:58:05;99828.91;;;9.12;100.00
11523;BME280;40093;43.224;27.910;2023-03-07T02:00:32;99818.75;;;9.20;100.00
11523;BME280;40093;43.224;27.910;2023-03-07T02:03:07;99816.41;;;9.18;100.00
11523;BME280;40093;43.224;27.910;2023-03-07T02:05:39;99816.78;;;9.17;100.00
11523;BME280;40093;43.224;27.910;2023-03-07T02:08:10;99817.97;;;9.16;100.00
11523;BME280;40093;43.224;27.910;2023-03-07T02:10:39;99817.44;;;8.96;100.00
11523;BME280;40093;43.224;27.910;2023-03-07T02:13:07;99816.66;;;8.96;100.00
11523;BME280;40093;43.224;27.910;2023-03-07T02:15:35;99815.03;;;8.91;100.00
11523;BME280;40093;43.224;27.910;2023-03-07T02:18:02;99814.19;;;8.84;100.00
11523;BME280;40093;43.224;27.910;2023-03-07T02:20:35;99807.41;;;8.67;100.00
11523;BME280;40093;43.224;27.910;2023-03-07T02:23:04;99808.63;;;8.70;100.00
11523;BME280;40093;43.224;27.910;2023-03-07T02:25:41;99812.53;;;8.69;100.00
11523;BME280;40093;43.224;27.910;2023-03-07T02:28:13;99808.59;;;8.66;100.00
11523;BME280;40093;43.224;27.910;2023-03-07T02:30:52;99818.75;;;8.66;100.00
11523;BME280;40093;43.224;27.910;2023-03-07T02:33:19;99816.31;;;8.54;100.00
11523;BME280;40093;43.224;27.910;2023-03-07T02:35:51;99809.09;;;8.35;100.00
11523;BME280;40093;43.224;27.910;2023-03-07T02:38:20;99813.03;;;8.38;100.00
11523;BME280;40093;43.224;27.910;2023-03-07T02:40:47;99822.31;;;8.26;100.00
11523;BME280;40093;43.224;27.910;2023-03-07T02:43:15;99810.22;;;8.31;100.00
11523;BME280;40093;43.224;27.910;2023-03-07T02:45:42;99815.16;;;8.18;100.00
11523;BME280;40093;43.224;27.910;2023-03-07T02:48:09;99813.50;;;8.10;100.00
11523;BME280;40093;43.224;27.910;2023-03-07T02:50:36;99807.94;;;8.03;100.00
11523;BME280;40093;43.224;27.910;2023-03-07T02:53:03;99796.94;;;8.00;100.00
11523;BME280;40093;43.224;27.910;2023-03-07T02:55:30;99803.38;;;8.14;100.00
11523;BME280;40093;43.224;27.910;2023-03-07T02:57:58;99803.31;;;8.11;100.00
11523;BME280;40093;43.224;27.910;2023-03-07T03:00:26;99805.25;;;8.07;100.00
11523;BME280;40093;43.224;27.910;2023-03-07T03:02:53;99805.69;;;8.12;100.00
11523;BME280;40093;43.224;27.910;2023-03-07T03:05:20;99799.47;;;8.15;100.00
11523;BME280;40093;43.224;27.910;2023-03-07T03:07:47;99804.75;;;7.98;100.00
11523;BME280;40093;43.224;27.910;2023-03-07T03:10:14;99792.31;;;8.04;100.00
11523;BME280;40093;43.224;27.910;2023-03-07T03:12:41;99792.75;;;8.09;100.00
11523;BME280;40093;43.224;27.910;2023-03-07T03:15:09;99789.25;;;8.12;100.00
11523;BME280;40093;43.224;27.910;2023-03-07T03:17:37;99790.06;;;8.16;100.00
11523;BME280;40093;43.224;27.910;2023-03-07T03:20:06;99787.69;;;8.11;100.00
11523;BME280;40093;43.224;27.910;2023-03-07T03:22:33;99790.13;;;8.20;100.00
11523;BME280;40093;43.224;27.910;2023-03-07T03:25:00;99792.44;;;8.18;100.00
11523;BME280;40093;43.224;27.910;2023-03-07T03:27:27;99787.03;;;8.21;100.00
11523;BME280;40093;43.224;27.910;2023-03-07T03:29:53;99787.75;;;8.18;100.00
11523;BME280;40093;43.224;27.910;2023-03-07T03:32:20;99781.56;;;8.25;100.00
11523;BME280;40093;43.224;27.910;2023-03-07T03:34:49;99780.81;;;8.28;100.00
11523;BME280;40093;43.224;27.910;2023-03-07T03:37:16;99794.94;;;8.30;100.00
11523;BME280;40093;43.224;27.910;2023-03-07T03:39:42;99798.09;;;8.32;100.00
11523;BME280;40093;43.224;27.910;2023-03-07T03:42:09;99781.19;;;8.26;100.00
11523;BME280;40093;43.224;27.910;2023-03-07T03:44:36;99779.63;;;8.25;100.00
11523;BME280;40093;43.224;27.910;2023-03-07T03:47:03;99786.16;;;8.17;100.00
11523;BME280;40093;43.224;27.910;2023-03-07T03:49:30;99780.41;;;7.93;100.00
11523;BME280;40093;43.224;27.910;2023-03-07T03:51:58;99776.09;;;7.92;100.00
11523;BME280;40093;43.224;27.910;2023-03-07T03:54:25;99778.06;;;7.91;100.00
11523;BME280;40093;43.224;27.910;2023-03-07T03:56:52;99771.91;;;8.01;100.00
11523;BME280;40093;43.224;27.910;2023-03-07T03:59:19;99771.53;;;8.03;100.00
11523;BME280;40093;43.224;27.910;2023-03-07T04:01:47;99764.97;;;8.11;100.00
11523;BME280;40093;43.224;27.910;2023-03-07T04:04:14;99762.22;;;8.11;100.00
11523;BME280;40093;43.224;27.910;2023-03-07T04:06:41;99760.31;;;8.15;100.00
11523;BME280;40093;43.224;27.910;2023-03-07T04:09:10;99755.56;;;8.12;100.00
11523;BME280;40093;43.224;27.910;2023-03-07T04:11:37;99755.22;;;8.13;100.00
11523;BME280;40093;43.224;27.910;2023-03-07T04:14:04;99744.63;;;8.12;100.00
11523;BME280;40093;43.224;27.910;2023-03-07T04:16:31;99754.06;;;8.18;100.00
11523;BME280;40093;43.224;27.910;2023-03-07T04:18:57;99747.09;;;8.20;100.00
11523;BME280;40093;43.224;27.910;2023-03-07T04:21:24;99750.50;;;8.14;100.00
11523;BME280;40093;43.224;27.910;2023-03-07T04:23:51;99753.66;;;8.16;100.00
11523;BME280;40093;43.224;27.910;2023-03-07T04:26:21;99756.44;;;8.19;100.00
11523;BME280;40093;43.224;27.910;2023-03-07T04:28:48;99754.44;;;8.16;100.00
11523;BME280;40093;43.224;27.910;2023-03-07T04:31:17;99754.84;;;8.15;100.00
11523;BME280;40093;43.224;27.910;2023-03-07T04:33:45;99758.06;;;8.24;100.00
11523;BME280;40093;43.224;27.910;2023-03-07T04:36:13;99762.81;;;8.27;100.00
11523;BME280;40093;43.224;27.910;2023-03-07T04:38:41;99768.22;;;8.20;100.00
11523;BME280;40093;43.224;27.910;2023-03-07T04:41:10;99769.41;;;8.22;100.00
11523;BME280;40093;43.224;27.910;2023-03-07T04:43:39;99763.94;;;8.22;100.00
11523;BME280;40093;43.224;27.910;2023-03-07T04:46:07;99771.03;;;8.27;100.00
11523;BME280;40093;43.224;27.910;2023-03-07T04:48:34;99770.72;;;8.35;100.00
11523;BME280;40093;43.224;27.910;2023-03-07T04:51:01;99774.66;;;8.38;100.00
11523;BME280;40093;43.224;27.910;2023-03-07T04:53:28;99765.25;;;8.39;100.00
11523;BME280;40093;43.224;27.910;2023-03-07T04:55:57;99765.66;;;8.41;100.00
11523;BME280;40093;43.224;27.910;2023-03-07T04:58:24;99759.47;;;8.51;100.00
11523;BME280;40093;43.224;27.910;2023-03-07T05:00:53;99765.53;;;8.74;100.00
11523;BME280;40093;43.224;27.910;2023-03-07T05:03:21;99767.31;;;9.03;100.00
11523;BME280;40093;43.224;27.910;2023-03-07T05:05:49;99759.22;;;9.31;100.00
11523;BME280;40093;43.224;27.910;2023-03-07T05:08:16;99764.06;;;9.62;100.00
11523;BME280;40093;43.224;27.910;2023-03-07T05:10:43;99777.09;;;9.92;100.00
11523;BME280;40093;43.224;27.910;2023-03-07T05:13:10;99778.75;;;10.14;100.00
11523;BME280;40093;43.224;27.910;2023-03-07T05:15:37;99786.66;;;10.40;100.00
11523;BME280;40093;43.224;27.910;2023-03-07T05:18:06;99783.53;;;10.45;99.40
11523;BME280;40093;43.224;27.910;2023-03-07T05:20:33;99787.06;;;10.63;98.19
11523;BME280;40093;43.224;27.910;2023-03-07T05:22:59;99783.91;;;10.75;95.55
11523;BME280;40093;43.224;27.910;2023-03-07T05:25:26;99790.22;;;10.97;94.97
11523;BME280;40093;43.224;27.910;2023-03-07T05:27:54;99793.69;;;11.25;92.01
11523;BME280;40093;43.224;27.910;2023-03-07T05:30:20;99787.75;;;11.30;90.46
11523;BME280;40093;43.224;27.910;2023-03-07T05:32:47;99793.69;;;11.11;91.30
11523;BME280;40093;43.224;27.910;2023-03-07T05:35:17;99795.69;;;11.11;91.68
11523;BME280;40093;43.224;27.910;2023-03-07T05:37:45;99801.47;;;11.55;90.32
11523;BME280;40093;43.224;27.910;2023-03-07T05:40:12;99800.97;;;11.91;87.29
11523;BME280;40093;43.224;27.910;2023-03-07T05:42:39;99800.59;;;11.89;84.34
11523;BME280;40093;43.224;27.910;2023-03-07T05:45:07;99802.38;;;12.20;83.14
11523;BME280;40093;43.224;27.910;2023-03-07T05:47:34;99798.09;;;12.12;80.82
11523;BME280;40093;43.224;27.910;2023-03-07T05:50:01;99808.94;;;12.40;80.48
11523;BME280;40093;43.224;27.910;2023-03-07T05:52:30;99808.78;;;12.61;79.04
11523;BME280;40093;43.224;27.910;2023-03-07T05:55:00;99810.03;;;12.56;79.06
11523;BME280;40093;43.224;27.910;2023-03-07T05:57:26;99814.13;;;12.85;78.26
11523;BME280;40093;43.224;27.910;2023-03-07T05:59:53;99812.78;;;13.04;76.88
11523;BME280;40093;43.224;27.910;2023-03-07T06:02:20;99810.91;;;13.38;76.17
11523;BME280;40093;43.224;27.910;2023-03-07T06:04:47;99806.81;;;13.49;75.75
11523;BME280;40093;43.224;27.910;2023-03-07T06:07:14;99815.19;;;13.76;75.37
11523;BME280;40093;43.224;27.910;2023-03-07T06:09:43;99813.78;;;13.94;74.85
11523;BME280;40093;43.224;27.910;2023-03-07T06:12:10;99815.22;;;14.06;73.94
11523;BME280;40093;43.224;27.910;2023-03-07T06:14:37;99810.41;;;14.10;73.65
11523;BME280;40093;43.224;27.910;2023-03-07T06:17:04;99814.22;;;14.23;73.17
11523;BME280;40093;43.224;27.910;2023-03-07T06:19:31;99813.66;;;14.05;72.57
11523;BME280;40093;43.224;27.910;2023-03-07T06:21:58;99814.31;;;14.12;72.71
11523;BME280;40093;43.224;27.910;2023-03-07T06:24:25;99816.13;;;14.29;71.95
11523;BME280;40093;43.224;27.910;2023-03-07T06:26:53;99818.44;;;14.57;70.83
11523;BME280;40093;43.224;27.910;2023-03-07T06:29:20;99829.03;;;14.39;69.66
11523;BME280;40093;43.224;27.910;2023-03-07T06:31:47;99820.22;;;14.18;71.05
11523;BME280;40093;43.224;27.910;2023-03-07T06:34:15;99827.59;;;14.28;70.76
11523;BME280;40093;43.224;27.910;2023-03-07T06:36:42;99831.91;;;14.29;71.26
11523;BME280;40093;43.224;27.910;2023-03-07T06:39:09;99820.91;;;14.52;70.74
11523;BME280;40093;43.224;27.910;2023-03-07T06:41:36;99836.25;;;14.30;70.81
11523;BME280;40093;43.224;27.910;2023-03-07T06:44:04;99831.44;;;14.37;71.03
11523;BME280;40093;43.224;27.910;2023-03-07T06:46:31;99832.09;;;14.45;71.77
11523;BME280;40093;43.224;27.910;2023-03-07T06:48:58;99825.34;;;14.16;72.95
11523;BME280;40093;43.224;27.910;2023-03-07T06:51:25;99828.97;;;14.43;72.84
11523;BME280;40093;43.224;27.910;2023-03-07T06:53:52;99827.47;;;14.88;71.12
11523;BME280;40093;43.224;27.910;2023-03-07T06:56:18;99836.09;;;14.93;70.99
11523;BME280;40093;43.224;27.910;2023-03-07T06:58:45;99829.34;;;15.17;69.07
11523;BME280;40093;43.224;27.910;2023-03-07T07:01:17;99830.38;;;15.03;69.26
11523;BME280;40093;43.224;27.910;2023-03-07T07:03:45;99832.22;;;15.10;69.81
11523;BME280;40093;43.224;27.910;2023-03-07T07:06:11;99837.66;;;15.40;68.36
11523;BME280;40093;43.224;27.910;2023-03-07T07:08:38;99838.47;;;15.40;67.63
11523;BME280;40093;43.224;27.910;2023-03-07T07:11:05;99842.50;;;15.36;67.46
11523;BME280;40093;43.224;27.910;2023-03-07T07:13:32;99838.22;;;15.08;68.32
11523;BME280;40093;43.224;27.910;2023-03-07T07:16:03;99839.09;;;15.25;69.05
11523;BME280;40093;43.224;27.910;2023-03-07T07:18:32;99842.69;;;15.22;69.16
11523;BME280;40093;43.224;27.910;2023-03-07T07:20:59;99845.00;;;15.27;68.35
11523;BME280;40093;43.224;27.910;2023-03-07T07:23:26;99836.28;;;15.28;68.35
11523;BME280;40093;43.224;27.910;2023-03-07T07:25:54;99841.97;;;15.64;67.53
11523;BME280;40093;43.224;27.910;2023-03-07T07:28:21;99836.13;;;15.58;66.99
11523;BME280;40093;43.224;27.910;2023-03-07T07:30:48;99843.34;;;15.75;66.47
11523;BME280;40093;43.224;27.910;2023-03-07T07:33:15;99837.66;;;15.82;65.79
11523;BME280;40093;43.224;27.910;2023-03-07T07:35:43;99840.78;;;15.84;66.06
11523;BME280;40093;43.224;27.910;2023-03-07T07:38:10;99839.41;;;16.12;65.30
11523;BME280;40093;43.224;27.910;2023-03-07T07:40:37;99830.19;;;15.99;65.24
11523;BME280;40093;43.224;27.910;2023-03-07T07:43:04;99834.78;;;16.05;64.90
11523;BME280;40093;43.224;27.910;2023-03-07T07:45:31;99843.47;;;16.07;65.46
11523;BME280;40093;43.224;27.910;2023-03-07T07:47:58;99835.19;;;16.23;64.75
11523;BME280;40093;43.224;27.910;2023-03-07T07:50:25;99837.47;;;16.28;64.61
11523;BME280;40093;43.224;27.910;2023-03-07T07:52:53;99828.69;;;16.49;63.82
11523;BME280;40093;43.224;27.910;2023-03-07T07:55:20;99832.38;;;16.94;62.72
11523;BME280;40093;43.224;27.910;2023-03-07T07:57:49;99831.84;;;17.31;60.94
11523;BME280;40093;43.224;27.910;2023-03-07T08:00:17;99828.69;;;17.29;59.66
11523;BME280;40093;43.224;27.910;2023-03-07T08:02:46;99824.38;;;17.12;60.64
11523;BME280;40093;43.224;27.910;2023-03-07T08:05:14;99832.91;;;17.21;60.04
11523;BME280;40093;43.224;27.910;2023-03-07T08:07:41;99830.13;;;17.21;59.95
11523;BME280;40093;43.224;27.910;2023-03-07T08:10:11;99828.56;;;17.20;60.06
11523;BME280;40093;43.224;27.910;2023-03-07T08:12:41;99832.94;;;17.34;60.18
11523;BME280;40093;43.224;27.910;2023-03-07T08:15:08;99825.91;;;17.29;59.40
11523;BME280;40093;43.224;27.910;2023-03-07T08:17:35;99825.94;;;17.13;60.17
11523;BME280;40093;43.224;27.910;2023-03-07T08:20:02;99821.84;;;17.18;60.04
11523;BME280;40093;43.224;27.910;2023-03-07T08:22:33;99820.22;;;17.04;60.63
11523;BME280;40093;43.224;27.910;2023-03-07T08:25:00;99823.16;;;16.97;61.05
11523;BME280;40093;43.224;27.910;2023-03-07T08:27:29;99810.75;;;16.86;61.20
11523;BME280;40093;43.224;27.910;2023-03-07T08:29:56;99812.75;;;17.01;60.75
11523;BME280;40093;43.224;27.910;2023-03-07T08:32:23;99816.94;;;17.09;60.95
11523;BME280;40093;43.224;27.910;2023-03-07T08:34:49;99814.22;;;17.38;60.37
11523;BME280;40093;43.224;27.910;2023-03-07T08:37:16;99808.16;;;17.55;59.30
11523;BME280;40093;43.224;27.910;2023-03-07T08:39:43;99808.09;;;17.43;58.66
11523;BME280;40093;43.224;27.910;2023-03-07T08:42:12;99813.53;;;17.62;58.98
11523;BME280;40093;43.224;27.910;2023-03-07T08:44:40;99814.59;;;17.80;58.29
11523;BME280;40093;43.224;27.910;2023-03-07T08:47:07;99811.97;;;17.89;57.65
11523;BME280;40093;43.224;27.910;2023-03-07T08:49:35;99812.97;;;17.95;57.66
11523;BME280;40093;43.224;27.910;2023-03-07T08:52:03;99795.06;;;18.09;56.91
11523;BME280;40093;43.224;27.910;2023-03-07T08:54:30;99804.66;;;18.08;56.49
11523;BME280;40093;43.224;27.910;2023-03-07T08:56:58;99801.09;;;18.20;56.54
11523;BME280;40093;43.224;27.910;2023-03-07T08:59:25;99807.50;;;17.92;56.91
11523;BME280;40093;43.224;27.910;2023-03-07T09:01:54;99802.28;;;17.94;56.68
11523;BME280;40093;43.224;27.910;2023-03-07T09:04:21;99798.47;;;17.88;56.56
11523;BME280;40093;43.224;27.910;2023-03-07T09:06:48;99800.31;;;18.07;56.59
11523;BME280;40093;43.224;27.910;2023-03-07T09:09:15;99786.28;;;18.23;55.58
11523;BME280;40093;43.224;27.910;2023-03-07T09:11:42;99789.75;;;18.14;56.41
11523;BME280;40093;43.224;27.910;2023-03-07T09:14:08;99790.44;;;18.31;55.71
11523;BME280;40093;43.224;27.910;2023-03-07T09:16:35;99780.31;;;18.62;54.72
11523;BME280;40093;43.224;27.910;2023-03-07T09:19:04;99778.88;;;18.70;53.18
11523;BME280;40093;43.224;27.910;2023-03-07T09:21:31;99772.75;;;18.50;53.24
11523;BME280;40093;43.224;27.910;2023-03-07T09:23:58;99776.72;;;18.74;53.00
11523;BME280;40093;43.224;27.910;2023-03-07T09:26:25;99770.94;;;18.81;52.90
11523;BME280;40093;43.224;27.910;2023-03-07T09:28:52;99769.59;;;18.73;52.14
11523;BME280;40093;43.224;27.910;2023-03-07T09:31:18;99768.25;;;18.65;51.85
11523;BME280;40093;43.224;27.910;2023-03-07T09:33:45;99770.94;;;18.56;52.40
11523;BME280;40093;43.224;27.910;2023-03-07T09:36:15;99768.19;;;18.43;51.93
11523;BME280;40093;43.224;27.910;2023-03-07T09:38:42;99763.38;;;18.69;51.82
11523;BME280;40093;43.224;27.910;2023-03-07T09:44:05;99766.22;;;18.78;50.78
11523;BME280;40093;43.224;27.910;2023-03-07T09:46:43;99770.44;;;18.95;51.77
11523;BME280;40093;43.224;27.910;2023-03-07T09:49:18;99771.88;;;19.12;51.88
11523;BME280;40093;43.224;27.910;2023-03-07T09:51:49;99761.34;;;19.16;51.65
11523;BME280;40093;43.224;27.910;2023-03-07T09:54:19;99764.66;;;19.02;50.88
11523;BME280;40093;43.224;27.910;2023-03-07T09:56:50;99761.00;;;18.80;51.36
11523;BME280;40093;43.224;27.910;2023-03-07T09:59:23;99751.44;;;18.56;52.68
11523;BME280;40093;43.224;27.910;2023-03-07T10:01:59;99754.69;;;18.42;52.78
11523;BME280;40093;43.224;27.910;2023-03-07T10:04:33;99758.25;;;18.30;53.61
11523;BME280;40093;43.224;27.910;2023-03-07T10:07:03;99750.41;;;18.25;53.50
11523;BME280;40093;43.224;27.910;2023-03-07T10:09:30;99757.34;;;18.20;53.95
11523;BME280;40093;43.224;27.910;2023-03-07T10:12:18;99750.66;;;18.18;53.81
11523;BME280;40093;43.224;27.910;2023-03-07T10:15:00;99756.31;;;18.14;54.18
11523;BME280;40093;43.224;27.910;2023-03-07T10:17:45;99749.97;;;18.01;54.24
11523;BME280;40093;43.224;27.910;2023-03-07T10:20:21;99746.81;;;17.87;55.35
11523;BME280;40093;43.224;27.910;2023-03-07T10:22:57;99743.00;;;17.81;56.40
11523;BME280;40093;43.224;27.910;2023-03-07T10:25:27;99744.56;;;17.82;56.94
11523;BME280;40093;43.224;27.910;2023-03-07T10:28:00;99738.25;;;17.81;57.34
11523;BME280;40093;43.224;27.910;2023-03-07T10:30:38;99741.25;;;17.87;57.72
11523;BME280;40093;43.224;27.910;2023-03-07T10:33:14;99731.44;;;17.82;57.69
11523;BME280;40093;43.224;27.910;2023-03-07T10:35:43;99729.56;;;17.79;57.96
11523;BME280;40093;43.224;27.910;2023-03-07T10:38:18;99742.34;;;17.77;58.81
11523;BME280;40093;43.224;27.910;2023-03-07T10:40:53;99739.22;;;17.75;58.89
11523;BME280;40093;43.224;27.910;2023-03-07T10:43:22;99734.41;;;17.63;59.07
11523;BME280;40093;43.224;27.910;2023-03-07T10:45:53;99734.81;;;17.49;58.39
11523;BME280;40093;43.224;27.910;2023-03-07T10:48:23;99721.13;;;17.42;59.11
11523;BME280;40093;43.224;27.910;2023-03-07T10:50:55;99722.44;;;17.38;60.02
11523;BME280;40093;43.224;27.910;2023-03-07T10:53:30;99720.78;;;17.24;59.40
11523;BME280;40093;43.224;27.910;2023-03-07T10:56:10;99711.03;;;17.32;59.56
11523;BME280;40093;43.224;27.910;2023-03-07T10:58:38;99712.78;;;17.42;59.06
11523;BME280;40093;43.224;27.910;2023-03-07T11:01:17;99704.75;;;17.44;59.78
11523;BME280;40093;43.224;27.910;2023-03-07T11:03:49;99691.31;;;17.55;60.80
11523;BME280;40093;43.224;27.910;2023-03-07T11:06:26;99695.84;;;17.37;61.09
11523;BME280;40093;43.224;27.910;2023-03-07T11:09:13;99695.53;;;17.47;62.59
11523;BME280;40093;43.224;27.910;2023-03-07T11:11:47;99696.19;;;17.51;62.92
11523;BME280;40093;43.224;27.910;2023-03-07T11:14:14;99686.84;;;17.45;63.16
11523;BME280;40093;43.224;27.910;2023-03-07T11:16:47;99704.63;;;17.35;62.77
11523;BME280;40093;43.224;27.910;2023-03-07T11:19:34;99693.91;;;17.05;64.71
11523;BME280;40093;43.224;27.910;2023-03-07T11:22:03;99691.91;;;17.06;65.50
11523;BME280;40093;43.224;27.910;2023-03-07T11:24:36;99687.34;;;16.99;66.90
11523;BME280;40093;43.224;27.910;2023-03-07T11:27:04;99681.56;;;17.06;66.85
11523;BME280;40093;43.224;27.910;2023-03-07T11:29:31;99685.56;;;17.05;66.46
11523;BME280;40093;43.224;27.910;2023-03-07T11:32:03;99689.56;;;17.04;66.62
11523;BME280;40093;43.224;27.910;2023-03-07T11:34:40;99675.03;;;16.84;67.14
11523;BME280;40093;43.224;27.910;2023-03-07T11:37:21;99678.50;;;16.88;67.18
11523;BME280;40093;43.224;27.910;2023-03-07T11:40:11;99666.66;;;17.00;67.62
11523;BME280;40093;43.224;27.910;2023-03-07T11:42:54;99670.75;;;16.96;66.59
11523;BME280;40093;43.224;27.910;2023-03-07T11:45:30;99655.22;;;16.82;66.51
11523;BME280;40093;43.224;27.910;2023-03-07T11:48:07;99655.72;;;16.93;66.45
11523;BME280;40093;43.224;27.910;2023-03-07T11:50:42;99636.41;;;17.02;65.72
11523;BME280;40093;43.224;27.910;2023-03-07T11:56:19;99654.66;;;17.03;63.50
11523;BME280;40093;43.224;27.910;2023-03-07T12:02:24;99641.19;;;17.30;63.08
11523;BME280;40093;43.224;27.910;2023-03-07T12:05:18;99648.66;;;17.46;62.27
11523;BME280;40093;43.224;27.910;2023-03-07T12:07:59;99628.25;;;17.52;61.97
11523;BME280;40093;43.224;27.910;2023-03-07T12:10:37;99634.91;;;17.55;61.55
11523;BME280;40093;43.224;27.910;2023-03-07T12:13:17;99620.66;;;17.53;61.63
11523;BME280;40093;43.224;27.910;2023-03-07T12:15:57;99626.66;;;17.39;61.65
11523;BME280;40093;43.224;27.910;2023-03-07T12:18:40;99628.34;;;17.49;62.00
11523;BME280;40093;43.224;27.910;2023-03-07T12:21:26;99620.34;;;17.63;61.33
11523;BME280;40093;43.224;27.910;2023-03-07T12:24:00;99617.00;;;17.68;60.62
11523;BME280;40093;43.224;27.910;2023-03-07T12:26:33;99620.44;;;17.60;61.37
11523;BME280;40093;43.224;27.910;2023-03-07T12:29:08;99619.88;;;17.52;62.80
11523;BME280;40093;43.224;27.910;2023-03-07T12:31:41;99627.22;;;17.46;60.38
11523;BME280;40093;43.224;27.910;2023-03-07T12:34:15;99635.25;;;17.28;61.63
11523;BME280;40093;43.224;27.910;2023-03-07T12:36:48;99629.00;;;17.12;62.62
11523;BME280;40093;43.224;27.910;2023-03-07T12:39:21;99629.25;;;16.89;64.89
11523;BME280;40093;43.224;27.910;2023-03-07T12:41:56;99622.53;;;16.74;67.72
11523;BME280;40093;43.224;27.910;2023-03-07T12:44:35;99625.66;;;16.60;68.62
11523;BME280;40093;43.224;27.910;2023-03-07T12:47:12;99628.19;;;16.54;69.76
11523;BME280;40093;43.224;27.910;2023-03-07T12:49:43;99626.22;;;16.39;70.16
11523;BME280;40093;43.224;27.910;2023-03-07T12:52:17;99627.69;;;16.27;70.95
11523;BME280;40093;43.224;27.910;2023-03-07T12:54:53;99625.09;;;16.04;72.91
11523;BME280;40093;43.224;27.910;2023-03-07T12:57:26;99629.75;;;15.91;73.56
11523;BME280;40093;43.224;27.910;2023-03-07T13:00:00;99619.50;;;15.88;74.93
11523;BME280;40093;43.224;27.910;2023-03-07T13:02:31;99621.94;;;15.86;76.65
11523;BME280;40093;43.224;27.910;2023-03-07T13:05:00;99621.50;;;15.72;78.33
11523;BME280;40093;43.224;27.910;2023-03-07T13:07:29;99614.19;;;15.62;79.51
11523;BME280;40093;43.224;27.910;2023-03-07T13:09:59;99610.28;;;15.59;80.84
11523;BME280;40093;43.224;27.910;2023-03-07T13:12:32;99607.69;;;15.52;82.20
11523;BME280;40093;43.224;27.910;2023-03-07T13:15:01;99615.13;;;15.55;82.95